sensor_id;sensor_type;location;lat;lon;timestamp;P1;durP1;ratioP1;P2;durP2;ratioP2
21416;SDS011;10869;52.238;10.716;2024-03-02T00:02:11;24.27;;;14.80;;
21416;SDS011;10869;52.238;10.716;2024-03-02T00:04:36;26.37;;;16.10;;
21416;SDS011;10869;52.238;10.716;2024-03-02T00:07:02;26.60;;;16.17;;
21416;SDS011;10869;52.238;10.716;2024-03-02T00:09:29;24.93;;;14.87;;
21416;SDS011;10869;52.238;10.716;2024-03-02T00:11:54;25.87;;;15.47;;
21416;SDS011;10869;52.238;10.716;2024-03-02T00:14:20;25.60;;;14.90;;
21416;SDS011;10869;52.238;10.716;2024-03-02T00:16:46;25.43;;;15.87;;
21416;SDS011;10869;52.238;10.716;2024-03-02T00:19:12;23.27;;;15.03;;
21416;SDS011;10869;52.238;10.716;2024-03-02T00:21:38;25.50;;;14.83;;
21416;SDS011;10869;52.238;10.716;2024-03-02T00:24:07;23.10;;;14.70;;
21416;SDS011;10869;52.238;10.716;2024-03-02T00:26:58;24.40;;;14.43;;
21416;SDS011;10869;52.238;10.716;2024-03-02T00:29:23;23.70;;;14.47;;
21416;SDS011;10869;52.238;10.716;2024-03-02T00:31:49;23.53;;;15.53;;
21416;SDS011;10869;52.238;10.716;2024-03-02T00:34:15;25.63;;;15.13;;
21416;SDS011;10869;52.238;10.716;2024-03-02T00:36:42;22.27;;;14.73;;
21416;SDS011;10869;52.238;10.716;2024-03-02T00:39:09;21.93;;;14.67;;
21416;SDS011;10869;52.238;10.716;2024-03-02T00:41:38;22.47;;;14.03;;
21416;SDS011;10869;52.238;10.716;2024-03-02T00:44:10;23.43;;;14.77;;
21416;SDS011;10869;52.238;10.716;2024-03-02T00:49:05;24.63;;;15.33;;
21416;SDS011;10869;52.238;10.716;2024-03-02T00:51:37;23.80;;;15.00;;
21416;SDS011;10869;52.238;10.716;2024-03-02T00:54:05;25.37;;;15.20;;
21416;SDS011;10869;52.238;10.716;2024-03-02T00:56:32;23.67;;;13.67;;
21416;SDS011;10869;52.238;10.716;2024-03-02T00:58:59;23.60;;;14.30;;
21416;SDS011;10869;52.238;10.716;2024-03-02T01:01:25;27.43;;;14.57;;
21416;SDS011;10869;52.238;10.716;2024-03-02T01:03:51;24.20;;;14.73;;
21416;SDS011;10869;52.238;10.716;2024-03-02T01:06:17;21.60;;;14.00;;
21416;SDS011;10869;52.238;10.716;2024-03-02T01:08:43;22.90;;;14.03;;
21416;SDS011;10869;52.238;10.716;2024-03-02T01:11:09;20.47;;;13.93;;
21416;SDS011;10869;52.238;10.716;2024-03-02T01:13:35;19.63;;;12.57;;
21416;SDS011;10869;52.238;10.716;2024-03-02T01:16:01;24.07;;;14.33;;
21416;SDS011;10869;52.238;10.716;2024-03-02T01:18:28;18.93;;;12.70;;
21416;SDS011;10869;52.238;10.716;2024-03-02T01:20:56;20.07;;;13.40;;
21416;SDS011;10869;52.238;10.716;2024-03-02T01:23:22;19.70;;;12.63;;
21416;SDS011;10869;52.238;10.716;2024-03-02T01:25:49;21.33;;;13.43;;
21416;SDS011;10869;52.238;10.716;2024-03-02T01:28:15;21.37;;;14.43;;
21416;SDS011;10869;52.238;10.716;2024-03-02T01:30:41;19.30;;;13.07;;
21416;SDS011;10869;52.238;10.716;2024-03-02T01:33:07;20.87;;;12.50;;
21416;SDS011;10869;52.238;10.716;2024-03-02T01:35:33;22.77;;;13.87;;
21416;SDS011;10869;52.238;10.716;2024-03-02T01:38:02;21.27;;;13.00;;
21416;SDS011;10869;52.238;10.716;2024-03-02T01:40:28;20.93;;;12.97;;
21416;SDS011;10869;52.238;10.716;2024-03-02T01:42:54;21.43;;;12.73;;
21416;SDS011;10869;52.238;10.716;2024-03-02T01:45:20;19.93;;;12.87;;
21416;SDS011;10869;52.238;10.716;2024-03-02T01:47:47;19.63;;;12.80;;
21416;SDS011;10869;52.238;10.716;2024-03-02T01:50:13;22.10;;;12.53;;
21416;SDS011;10869;52.238;10.716;2024-03-02T01:52:39;20.83;;;13.70;;
21416;SDS011;10869;52.238;10.716;2024-03-02T01:55:15;20.53;;;12.83;;
21416;SDS011;10869;52.238;10.716;2024-03-02T01:57:40;20.37;;;12.10;;
21416;SDS011;10869;52.238;10.716;2024-03-02T02:00:06;22.93;;;12.60;;
21416;SDS011;10869;52.238;10.716;2024-03-02T02:02:33;20.23;;;11.73;;
21416;SDS011;10869;52.238;10.716;2024-03-02T02:04:59;21.47;;;12.43;;
21416;SDS011;10869;52.238;10.716;2024-03-02T02:07:25;22.27;;;11.90;;
21416;SDS011;10869;52.238;10.716;2024-03-02T02:09:50;19.17;;;12.47;;
21416;SDS011;10869;52.238;10.716;2024-03-02T02:12:16;18.57;;;11.40;;
21416;SDS011;10869;52.238;10.716;2024-03-02T02:14:48;22.57;;;13.43;;
21416;SDS011;10869;52.238;10.716;2024-03-02T02:17:17;24.03;;;14.27;;
21416;SDS011;10869;52.238;10.716;2024-03-02T02:19:43;21.50;;;14.03;;
21416;SDS011;10869;52.238;10.716;2024-03-02T02:22:09;26.47;;;13.67;;
21416;SDS011;10869;52.238;10.716;2024-03-02T02:24:35;20.77;;;13.57;;
21416;SDS011;10869;52.238;10.716;2024-03-02T02:27:04;19.80;;;13.83;;
21416;SDS011;10869;52.238;10.716;2024-03-02T02:29:30;20.63;;;12.93;;
21416;SDS011;10869;52.238;10.716;2024-03-02T02:31:56;22.07;;;14.30;;
21416;SDS011;10869;52.238;10.716;2024-03-02T02:34:21;22.23;;;14.07;;
21416;SDS011;10869;52.238;10.716;2024-03-02T02:36:47;20.20;;;13.87;;
21416;SDS011;10869;52.238;10.716;2024-03-02T02:39:14;19.17;;;13.37;;
21416;SDS011;10869;52.238;10.716;2024-03-02T02:41:42;20.13;;;13.93;;
21416;SDS011;10869;52.238;10.716;2024-03-02T02:44:08;23.40;;;14.37;;
21416;SDS011;10869;52.238;10.716;2024-03-02T02:46:36;22.30;;;13.83;;
21416;SDS011;10869;52.238;10.716;2024-03-02T02:49:03;20.57;;;14.63;;
21416;SDS011;10869;52.238;10.716;2024-03-02T02:51:29;21.13;;;15.23;;
21416;SDS011;10869;52.238;10.716;2024-03-02T02:53:54;26.73;;;16.07;;
21416;SDS011;10869;52.238;10.716;2024-03-02T02:56:20;24.30;;;15.60;;
21416;SDS011;10869;52.238;10.716;2024-03-02T02:58:46;23.30;;;15.23;;
21416;SDS011;10869;52.238;10.716;2024-03-02T03:01:12;24.17;;;15.37;;
21416;SDS011;10869;52.238;10.716;2024-03-02T03:03:38;24.33;;;16.17;;
21416;SDS011;10869;52.238;10.716;2024-03-02T03:06:04;24.33;;;17.03;;
21416;SDS011;10869;52.238;10.716;2024-03-02T03:08:29;22.50;;;14.97;;
21416;SDS011;10869;52.238;10.716;2024-03-02T03:10:55;26.60;;;15.50;;
21416;SDS011;10869;52.238;10.716;2024-03-02T03:13:21;25.63;;;16.17;;
21416;SDS011;10869;52.238;10.716;2024-03-02T03:15:46;25.07;;;15.40;;
21416;SDS011;10869;52.238;10.716;2024-03-02T03:18:12;25.50;;;15.33;;
21416;SDS011;10869;52.238;10.716;2024-03-02T03:20:38;24.17;;;15.13;;
21416;SDS011;10869;52.238;10.716;2024-03-02T03:23:04;21.83;;;14.07;;
21416;SDS011;10869;52.238;10.716;2024-03-02T03:25:30;23.70;;;15.40;;
21416;SDS011;10869;52.238;10.716;2024-03-02T03:27:56;25.63;;;15.40;;
21416;SDS011;10869;52.238;10.716;2024-03-02T03:30:22;21.10;;;14.63;;
21416;SDS011;10869;52.238;10.716;2024-03-02T03:32:48;23.23;;;14.60;;
21416;SDS011;10869;52.238;10.716;2024-03-02T03:35:13;26.33;;;16.03;;
21416;SDS011;10869;52.238;10.716;2024-03-02T03:37:43;20.30;;;13.80;;
21416;SDS011;10869;52.238;10.716;2024-03-02T03:43:31;24.67;;;15.80;;
21416;SDS011;10869;52.238;10.716;2024-03-02T03:45:57;24.50;;;14.87;;
21416;SDS011;10869;52.238;10.716;2024-03-02T03:48:23;24.13;;;14.83;;
21416;SDS011;10869;52.238;10.716;2024-03-02T03:50:49;24.43;;;14.40;;
21416;SDS011;10869;52.238;10.716;2024-03-02T03:53:15;24.87;;;14.63;;
21416;SDS011;10869;52.238;10.716;2024-03-02T03:55:41;21.67;;;14.67;;
21416;SDS011;10869;52.238;10.716;2024-03-02T03:58:06;23.03;;;14.43;;
21416;SDS011;10869;52.238;10.716;2024-03-02T04:00:32;24.23;;;14.90;;
21416;SDS011;10869;52.238;10.716;2024-03-02T04:02:58;23.30;;;15.27;;
21416;SDS011;10869;52.238;10.716;2024-03-02T04:05:23;22.77;;;14.53;;
21416;SDS011;10869;52.238;10.716;2024-03-02T04:07:49;19.97;;;13.60;;
21416;SDS011;10869;52.238;10.716;2024-03-02T04:10:15;20.90;;;13.37;;
21416;SDS011;10869;52.238;10.716;2024-03-02T04:12:42;21.27;;;14.00;;
21416;SDS011;10869;52.238;10.716;2024-03-02T04:15:08;21.27;;;13.57;;
21416;SDS011;10869;52.238;10.716;2024-03-02T04:17:33;19.53;;;12.40;;
21416;SDS011;10869;52.238;10.716;2024-03-02T04:20:00;17.43;;;11.37;;
21416;SDS011;10869;52.238;10.716;2024-03-02T04:22:27;21.57;;;13.07;;
21416;SDS011;10869;52.238;10.716;2024-03-02T04:24:52;22.00;;;13.53;;
21416;SDS011;10869;52.238;10.716;2024-03-02T04:27:19;18.83;;;12.57;;
21416;SDS011;10869;52.238;10.716;2024-03-02T04:29:45;20.57;;;13.43;;
21416;SDS011;10869;52.238;10.716;2024-03-02T04:32:10;18.43;;;12.43;;
21416;SDS011;10869;52.238;10.716;2024-03-02T04:34:36;19.70;;;13.33;;
21416;SDS011;10869;52.238;10.716;2024-03-02T04:37:02;19.93;;;11.97;;
21416;SDS011;10869;52.238;10.716;2024-03-02T04:39:27;19.00;;;12.67;;
21416;SDS011;10869;52.238;10.716;2024-03-02T04:41:53;21.80;;;13.53;;
21416;SDS011;10869;52.238;10.716;2024-03-02T04:44:19;23.57;;;13.70;;
21416;SDS011;10869;52.238;10.716;2024-03-02T04:46:45;21.13;;;14.07;;
21416;SDS011;10869;52.238;10.716;2024-03-02T04:49:10;20.60;;;13.43;;
21416;SDS011;10869;52.238;10.716;2024-03-02T04:51:36;22.53;;;14.20;;
21416;SDS011;10869;52.238;10.716;2024-03-02T04:54:02;24.53;;;13.77;;
21416;SDS011;10869;52.238;10.716;2024-03-02T04:56:28;20.13;;;14.43;;
21416;SDS011;10869;52.238;10.716;2024-03-02T04:58:56;25.00;;;14.93;;
21416;SDS011;10869;52.238;10.716;2024-03-02T05:01:22;20.27;;;13.73;;
21416;SDS011;10869;52.238;10.716;2024-03-02T05:03:48;26.17;;;13.53;;
21416;SDS011;10869;52.238;10.716;2024-03-02T05:06:13;21.43;;;14.20;;
21416;SDS011;10869;52.238;10.716;2024-03-02T05:08:39;21.63;;;13.53;;
21416;SDS011;10869;52.238;10.716;2024-03-02T05:11:05;21.13;;;13.60;;
21416;SDS011;10869;52.238;10.716;2024-03-02T05:13:49;20.87;;;13.70;;
21416;SDS011;10869;52.238;10.716;2024-03-02T05:16:15;19.93;;;13.27;;
21416;SDS011;10869;52.238;10.716;2024-03-02T05:18:40;21.73;;;14.20;;
21416;SDS011;10869;52.238;10.716;2024-03-02T05:21:06;24.00;;;14.47;;
21416;SDS011;10869;52.238;10.716;2024-03-02T05:23:32;20.50;;;14.20;;
21416;SDS011;10869;52.238;10.716;2024-03-02T05:25:58;22.33;;;14.43;;
21416;SDS011;10869;52.238;10.716;2024-03-02T05:28:24;22.03;;;13.97;;
21416;SDS011;10869;52.238;10.716;2024-03-02T05:30:50;21.07;;;14.30;;
21416;SDS011;10869;52.238;10.716;2024-03-02T05:33:15;22.93;;;14.50;;
21416;SDS011;10869;52.238;10.716;2024-03-02T05:35:41;19.87;;;12.97;;
21416;SDS011;10869;52.238;10.716;2024-03-02T05:38:08;20.77;;;12.90;;
21416;SDS011;10869;52.238;10.716;2024-03-02T05:40:34;18.80;;;12.43;;
21416;SDS011;10869;52.238;10.716;2024-03-02T05:43:00;19.80;;;12.57;;
21416;SDS011;10869;52.238;10.716;2024-03-02T05:45:25;18.57;;;11.50;;
21416;SDS011;10869;52.238;10.716;2024-03-02T05:47:51;18.43;;;12.23;;
21416;SDS011;10869;52.238;10.716;2024-03-02T05:50:17;19.53;;;12.80;;
21416;SDS011;10869;52.238;10.716;2024-03-02T05:52:45;22.27;;;13.10;;
21416;SDS011;10869;52.238;10.716;2024-03-02T05:55:10;22.47;;;14.70;;
21416;SDS011;10869;52.238;10.716;2024-03-02T05:57:36;23.73;;;14.17;;
21416;SDS011;10869;52.238;10.716;2024-03-02T06:00:10;24.60;;;15.03;;
21416;SDS011;10869;52.238;10.716;2024-03-02T06:02:40;22.93;;;15.47;;
21416;SDS011;10869;52.238;10.716;2024-03-02T06:08:27;25.70;;;14.83;;
21416;SDS011;10869;52.238;10.716;2024-03-02T06:10:53;24.83;;;15.70;;
21416;SDS011;10869;52.238;10.716;2024-03-02T06:13:19;27.13;;;16.23;;
21416;SDS011;10869;52.238;10.716;2024-03-02T06:15:45;26.47;;;15.43;;
21416;SDS011;10869;52.238;10.716;2024-03-02T06:18:10;23.20;;;14.47;;
21416;SDS011;10869;52.238;10.716;2024-03-02T06:20:36;27.20;;;16.63;;
21416;SDS011;10869;52.238;10.716;2024-03-02T06:23:02;24.20;;;15.83;;
21416;SDS011;10869;52.238;10.716;2024-03-02T06:25:28;23.77;;;15.73;;
21416;SDS011;10869;52.238;10.716;2024-03-02T06:27:54;23.67;;;15.53;;
21416;SDS011;10869;52.238;10.716;2024-03-02T06:37:14;23.00;;;14.30;;
21416;SDS011;10869;52.238;10.716;2024-03-02T06:39:41;22.10;;;15.07;;
21416;SDS011;10869;52.238;10.716;2024-03-02T06:42:07;24.27;;;15.77;;
21416;SDS011;10869;52.238;10.716;2024-03-02T06:44:33;25.43;;;15.60;;
21416;SDS011;10869;52.238;10.716;2024-03-02T06:47:00;25.10;;;17.20;;
21416;SDS011;10869;52.238;10.716;2024-03-02T06:49:26;27.33;;;17.07;;
21416;SDS011;10869;52.238;10.716;2024-03-02T06:51:51;29.50;;;18.57;;
21416;SDS011;10869;52.238;10.716;2024-03-02T06:57:40;31.00;;;20.20;;
21416;SDS011;10869;52.238;10.716;2024-03-02T07:00:08;28.07;;;18.53;;
21416;SDS011;10869;52.238;10.716;2024-03-02T07:02:35;31.40;;;20.47;;
21416;SDS011;10869;52.238;10.716;2024-03-02T07:05:05;30.10;;;18.80;;
21416;SDS011;10869;52.238;10.716;2024-03-02T07:11:04;33.37;;;19.70;;
21416;SDS011;10869;52.238;10.716;2024-03-02T07:16:52;33.23;;;20.47;;
21416;SDS011;10869;52.238;10.716;2024-03-02T07:19:18;29.33;;;18.30;;
21416;SDS011;10869;52.238;10.716;2024-03-02T07:25:06;34.60;;;19.77;;
21416;SDS011;10869;52.238;10.716;2024-03-02T07:27:32;29.43;;;18.33;;
21416;SDS011;10869;52.238;10.716;2024-03-02T07:30:02;33.57;;;20.13;;
21416;SDS011;10869;52.238;10.716;2024-03-02T07:32:28;31.00;;;20.63;;
21416;SDS011;10869;52.238;10.716;2024-03-02T07:34:54;32.87;;;20.70;;
21416;SDS011;10869;52.238;10.716;2024-03-02T07:37:21;28.40;;;18.23;;
21416;SDS011;10869;52.238;10.716;2024-03-02T07:39:55;30.03;;;19.20;;
21416;SDS011;10869;52.238;10.716;2024-03-02T07:45:43;28.33;;;18.20;;
21416;SDS011;10869;52.238;10.716;2024-03-02T07:48:10;32.77;;;19.13;;
21416;SDS011;10869;52.238;10.716;2024-03-02T07:50:36;28.20;;;18.53;;
21416;SDS011;10869;52.238;10.716;2024-03-02T07:53:05;27.67;;;17.07;;
21416;SDS011;10869;52.238;10.716;2024-03-02T07:55:34;27.50;;;18.43;;
21416;SDS011;10869;52.238;10.716;2024-03-02T07:58:01;29.63;;;18.87;;
21416;SDS011;10869;52.238;10.716;2024-03-02T08:00:31;29.57;;;18.87;;
21416;SDS011;10869;52.238;10.716;2024-03-02T08:02:58;28.33;;;19.10;;
21416;SDS011;10869;52.238;10.716;2024-03-02T08:05:25;29.37;;;19.90;;
21416;SDS011;10869;52.238;10.716;2024-03-02T08:07:52;30.73;;;19.17;;
21416;SDS011;10869;52.238;10.716;2024-03-02T08:10:18;29.40;;;18.50;;
21416;SDS011;10869;52.238;10.716;2024-03-02T08:12:44;30.33;;;20.03;;
21416;SDS011;10869;52.238;10.716;2024-03-02T08:18:32;31.27;;;18.10;;
21416;SDS011;10869;52.238;10.716;2024-03-02T08:20:59;35.20;;;20.97;;
21416;SDS011;10869;52.238;10.716;2024-03-02T08:23:27;31.60;;;19.97;;
21416;SDS011;10869;52.238;10.716;2024-03-02T08:25:53;29.53;;;19.53;;
21416;SDS011;10869;52.238;10.716;2024-03-02T08:28:19;26.67;;;18.10;;
21416;SDS011;10869;52.238;10.716;2024-03-02T08:30:45;27.93;;;19.50;;
21416;SDS011;10869;52.238;10.716;2024-03-02T08:33:11;27.10;;;18.33;;
21416;SDS011;10869;52.238;10.716;2024-03-02T08:35:54;28.97;;;17.93;;
21416;SDS011;10869;52.238;10.716;2024-03-02T08:41:47;27.93;;;19.57;;
21416;SDS011;10869;52.238;10.716;2024-03-02T08:44:13;28.73;;;17.87;;
21416;SDS011;10869;52.238;10.716;2024-03-02T08:46:39;27.90;;;17.87;;
21416;SDS011;10869;52.238;10.716;2024-03-02T08:49:05;25.43;;;17.03;;
21416;SDS011;10869;52.238;10.716;2024-03-02T08:51:32;26.83;;;16.47;;
21416;SDS011;10869;52.238;10.716;2024-03-02T08:53:58;23.93;;;16.87;;
21416;SDS011;10869;52.238;10.716;2024-03-02T08:56:24;25.87;;;16.07;;
21416;SDS011;10869;52.238;10.716;2024-03-02T08:58:54;24.10;;;16.17;;
21416;SDS011;10869;52.238;10.716;2024-03-02T09:01:35;25.57;;;15.43;;
21416;SDS011;10869;52.238;10.716;2024-03-02T09:04:46;24.57;;;15.27;;
21416;SDS011;10869;52.238;10.716;2024-03-02T09:07:14;21.17;;;15.37;;
21416;SDS011;10869;52.238;10.716;2024-03-02T09:09:40;25.07;;;17.33;;
21416;SDS011;10869;52.238;10.716;2024-03-02T09:12:07;23.73;;;14.70;;
21416;SDS011;10869;52.238;10.716;2024-03-02T10:38:58;22.73;;;14.23;;
21416;SDS011;10869;52.238;10.716;2024-03-02T10:49:59;23.00;;;12.33;;
21416;SDS011;10869;52.238;10.716;2024-03-02T10:52:30;20.30;;;12.90;;
21416;SDS011;10869;52.238;10.716;2024-03-02T11:02:49;19.43;;;12.53;;
21416;SDS011;10869;52.238;10.716;2024-03-02T11:14:01;12.77;;;8.03;;
21416;SDS011;10869;52.238;10.716;2024-03-02T11:48:04;13.90;;;7.90;;
21416;SDS011;10869;52.238;10.716;2024-03-02T11:53:09;11.73;;;7.07;;
21416;SDS011;10869;52.238;10.716;2024-03-02T11:58:13;10.87;;;5.33;;
21416;SDS011;10869;52.238;10.716;2024-03-02T12:00:46;11.40;;;5.63;;
21416;SDS011;10869;52.238;10.716;2024-03-02T12:03:12;8.80;;;5.27;;
21416;SDS011;10869;52.238;10.716;2024-03-02T12:05:42;11.60;;;5.60;;
21416;SDS011;10869;52.238;10.716;2024-03-02T12:08:08;10.07;;;5.73;;
21416;SDS011;10869;52.238;10.716;2024-03-02T13:12:49;12.50;;;6.53;;
21416;SDS011;10869;52.238;10.716;2024-03-02T13:21:43;10.90;;;5.97;;
21416;SDS011;10869;52.238;10.716;2024-03-02T13:24:12;9.67;;;5.50;;
21416;SDS011;10869;52.238;10.716;2024-03-02T13:30:11;9.80;;;4.53;;
21416;SDS011;10869;52.238;10.716;2024-03-02T13:32:37;9.87;;;4.53;;
21416;SDS011;10869;52.238;10.716;2024-03-02T13:35:04;10.83;;;5.97;;
21416;SDS011;10869;52.238;10.716;2024-03-02T13:37:30;9.37;;;5.40;;
21416;SDS011;10869;52.238;10.716;2024-03-02T13:39:58;10.27;;;5.17;;
21416;SDS011;10869;52.238;10.716;2024-03-02T13:42:24;11.20;;;5.40;;
21416;SDS011;10869;52.238;10.716;2024-03-02T13:44:51;9.80;;;5.30;;
21416;SDS011;10869;52.238;10.716;2024-03-02T13:50:39;11.27;;;6.03;;
21416;SDS011;10869;52.238;10.716;2024-03-02T13:56:28;11.17;;;5.93;;
21416;SDS011;10869;52.238;10.716;2024-03-02T13:58:54;9.77;;;5.37;;
21416;SDS011;10869;52.238;10.716;2024-03-02T14:01:20;10.47;;;5.03;;
21416;SDS011;10869;52.238;10.716;2024-03-02T14:03:48;10.10;;;5.30;;
21416;SDS011;10869;52.238;10.716;2024-03-02T14:09:38;9.13;;;4.70;;
21416;SDS011;10869;52.238;10.716;2024-03-02T14:12:06;9.40;;;4.87;;
21416;SDS011;10869;52.238;10.716;2024-03-02T14:17:55;7.30;;;3.53;;
21416;SDS011;10869;52.238;10.716;2024-03-02T14:28:07;11.43;;;5.33;;
21416;SDS011;10869;52.238;10.716;2024-03-02T14:30:32;11.07;;;6.20;;
21416;SDS011;10869;52.238;10.716;2024-03-02T14:32:59;9.07;;;5.30;;
21416;SDS011;10869;52.238;10.716;2024-03-02T14:35:28;9.50;;;5.27;;
21416;SDS011;10869;52.238;10.716;2024-03-02T14:37:54;9.43;;;5.47;;
21416;SDS011;10869;52.238;10.716;2024-03-02T14:40:22;10.87;;;5.43;;
21416;SDS011;10869;52.238;10.716;2024-03-02T14:42:51;8.50;;;5.07;;
21416;SDS011;10869;52.238;10.716;2024-03-02T14:45:55;10.97;;;6.07;;
21416;SDS011;10869;52.238;10.716;2024-03-02T14:48:21;15.97;;;6.53;;
21416;SDS011;10869;52.238;10.716;2024-03-02T14:50:56;14.13;;;6.93;;
21416;SDS011;10869;52.238;10.716;2024-03-02T14:53:31;10.70;;;5.93;;
21416;SDS011;10869;52.238;10.716;2024-03-02T14:58:33;12.00;;;6.77;;
21416;SDS011;10869;52.238;10.716;2024-03-02T15:01:00;12.97;;;7.20;;
21416;SDS011;10869;52.238;10.716;2024-03-02T15:03:26;12.17;;;7.70;;
21416;SDS011;10869;52.238;10.716;2024-03-02T15:05:52;9.83;;;5.80;;
21416;SDS011;10869;52.238;10.716;2024-03-02T15:08:25;10.60;;;6.30;;
21416;SDS011;10869;52.238;10.716;2024-03-02T15:10:54;10.67;;;5.83;;
21416;SDS011;10869;52.238;10.716;2024-03-02T15:13:21;11.77;;;6.13;;
21416;SDS011;10869;52.238;10.716;2024-03-02T15:15:47;11.10;;;6.10;;
21416;SDS011;10869;52.238;10.716;2024-03-02T15:18:13;15.20;;;6.77;;
21416;SDS011;10869;52.238;10.716;2024-03-02T15:20:39;13.60;;;6.80;;
21416;SDS011;10869;52.238;10.716;2024-03-02T15:26:28;15.70;;;8.53;;
21416;SDS011;10869;52.238;10.716;2024-03-02T15:28:54;13.13;;;7.43;;
21416;SDS011;10869;52.238;10.716;2024-03-02T15:31:22;9.60;;;5.33;;
21416;SDS011;10869;52.238;10.716;2024-03-02T15:33:48;9.27;;;5.07;;
21416;SDS011;10869;52.238;10.716;2024-03-02T15:36:30;11.40;;;6.27;;
21416;SDS011;10869;52.238;10.716;2024-03-02T15:38:56;16.93;;;9.73;;
21416;SDS011;10869;52.238;10.716;2024-03-02T15:41:22;15.10;;;8.53;;
21416;SDS011;10869;52.238;10.716;2024-03-02T15:43:48;22.63;;;13.37;;
21416;SDS011;10869;52.238;10.716;2024-03-02T15:46:14;14.80;;;9.40;;
21416;SDS011;10869;52.238;10.716;2024-03-02T16:05:35;14.03;;;8.70;;
21416;SDS011;10869;52.238;10.716;2024-03-02T16:11:22;14.37;;;8.03;;
21416;SDS011;10869;52.238;10.716;2024-03-02T16:17:10;16.83;;;9.57;;
21416;SDS011;10869;52.238;10.716;2024-03-02T16:22:58;14.43;;;8.53;;
21416;SDS011;10869;52.238;10.716;2024-03-02T16:25:24;16.07;;;9.37;;
21416;SDS011;10869;52.238;10.716;2024-03-02T16:27:51;16.63;;;10.10;;
21416;SDS011;10869;52.238;10.716;2024-03-02T16:30:18;18.40;;;11.40;;
21416;SDS011;10869;52.238;10.716;2024-03-02T16:36:21;20.43;;;13.30;;
21416;SDS011;10869;52.238;10.716;2024-03-02T16:43:04;25.43;;;15.67;;
21416;SDS011;10869;52.238;10.716;2024-03-02T16:49:25;22.20;;;15.23;;
21416;SDS011;10869;52.238;10.716;2024-03-02T16:52:17;24.83;;;15.30;;
21416;SDS011;10869;52.238;10.716;2024-03-02T16:54:49;20.70;;;14.00;;
21416;SDS011;10869;52.238;10.716;2024-03-02T16:57:16;26.13;;;16.03;;
21416;SDS011;10869;52.238;10.716;2024-03-02T16:59:43;24.07;;;15.17;;
21416;SDS011;10869;52.238;10.716;2024-03-02T17:07:21;26.13;;;17.23;;
21416;SDS011;10869;52.238;10.716;2024-03-02T17:09:50;33.87;;;19.53;;
21416;SDS011;10869;52.238;10.716;2024-03-02T17:12:18;31.43;;;19.03;;
21416;SDS011;10869;52.238;10.716;2024-03-02T17:14:44;28.00;;;18.40;;
21416;SDS011;10869;52.238;10.716;2024-03-02T17:17:10;28.87;;;19.40;;
21416;SDS011;10869;52.238;10.716;2024-03-02T17:19:37;32.20;;;19.53;;
21416;SDS011;10869;52.238;10.716;2024-03-02T17:25:25;32.93;;;19.47;;
21416;SDS011;10869;52.238;10.716;2024-03-02T17:31:13;29.93;;;19.87;;
21416;SDS011;10869;52.238;10.716;2024-03-02T17:33:39;26.10;;;17.60;;
21416;SDS011;10869;52.238;10.716;2024-03-02T17:36:05;30.43;;;17.93;;
21416;SDS011;10869;52.238;10.716;2024-03-02T17:38:31;30.03;;;18.00;;
21416;SDS011;10869;52.238;10.716;2024-03-02T17:40:57;27.00;;;16.83;;
21416;SDS011;10869;52.238;10.716;2024-03-02T17:46:45;26.03;;;16.57;;
21416;SDS011;10869;52.238;10.716;2024-03-02T17:52:33;24.40;;;14.43;;
21416;SDS011;10869;52.238;10.716;2024-03-02T17:54:59;29.07;;;15.83;;
21416;SDS011;10869;52.238;10.716;2024-03-02T18:00:46;24.30;;;14.53;;
21416;SDS011;10869;52.238;10.716;2024-03-02T18:03:12;20.53;;;13.97;;
21416;SDS011;10869;52.238;10.716;2024-03-02T18:09:00;20.87;;;12.80;;
21416;SDS011;10869;52.238;10.716;2024-03-02T18:11:27;20.60;;;13.03;;
21416;SDS011;10869;52.238;10.716;2024-03-02T18:13:53;20.63;;;12.90;;
21416;SDS011;10869;52.238;10.716;2024-03-02T18:19:40;20.60;;;12.90;;
21416;SDS011;10869;52.238;10.716;2024-03-02T18:22:06;20.13;;;12.43;;
21416;SDS011;10869;52.238;10.716;2024-03-02T18:24:32;19.60;;;11.33;;
21416;SDS011;10869;52.238;10.716;2024-03-02T18:26:58;19.13;;;12.10;;
21416;SDS011;10869;52.238;10.716;2024-03-02T18:29:24;17.00;;;11.07;;
21416;SDS011;10869;52.238;10.716;2024-03-02T18:31:50;17.70;;;12.37;;
21416;SDS011;10869;52.238;10.716;2024-03-02T18:34:16;20.07;;;12.73;;
21416;SDS011;10869;52.238;10.716;2024-03-02T18:40:04;21.57;;;12.70;;
21416;SDS011;10869;52.238;10.716;2024-03-02T18:42:31;20.27;;;12.30;;
21416;SDS011;10869;52.238;10.716;2024-03-02T18:48:19;17.67;;;11.77;;
21416;SDS011;10869;52.238;10.716;2024-03-02T18:50:45;17.07;;;11.27;;
21416;SDS011;10869;52.238;10.716;2024-03-02T18:53:11;20.03;;;12.43;;
21416;SDS011;10869;52.238;10.716;2024-03-02T18:55:37;21.13;;;12.33;;
21416;SDS011;10869;52.238;10.716;2024-03-02T19:01:25;18.07;;;12.43;;
21416;SDS011;10869;52.238;10.716;2024-03-02T19:07:13;21.10;;;13.80;;
21416;SDS011;10869;52.238;10.716;2024-03-02T19:09:40;22.93;;;14.13;;
21416;SDS011;10869;52.238;10.716;2024-03-02T19:15:29;19.97;;;12.53;;
21416;SDS011;10869;52.238;10.716;2024-03-02T19:17:54;21.67;;;12.70;;
21416;SDS011;10869;52.238;10.716;2024-03-02T19:20:20;20.07;;;12.87;;
21416;SDS011;10869;52.238;10.716;2024-03-02T19:26:09;19.43;;;10.83;;
21416;SDS011;10869;52.238;10.716;2024-03-02T19:32:04;19.87;;;12.80;;
21416;SDS011;10869;52.238;10.716;2024-03-02T19:37:52;19.33;;;12.50;;
21416;SDS011;10869;52.238;10.716;2024-03-02T19:43:27;22.03;;;12.03;;
21416;SDS011;10869;52.238;10.716;2024-03-02T19:45:53;21.17;;;12.03;;
21416;SDS011;10869;52.238;10.716;2024-03-02T19:48:19;20.00;;;11.57;;
21416;SDS011;10869;52.238;10.716;2024-03-02T19:50:44;20.50;;;12.27;;
21416;SDS011;10869;52.238;10.716;2024-03-02T19:56:34;20.00;;;11.97;;
21416;SDS011;10869;52.238;10.716;2024-03-02T19:59:03;21.47;;;11.60;;
21416;SDS011;10869;52.238;10.716;2024-03-02T20:01:29;18.83;;;10.57;;
21416;SDS011;10869;52.238;10.716;2024-03-02T20:03:55;18.93;;;11.53;;
21416;SDS011;10869;52.238;10.716;2024-03-02T20:06:21;20.53;;;11.77;;
21416;SDS011;10869;52.238;10.716;2024-03-02T20:08:48;19.07;;;11.43;;
21416;SDS011;10869;52.238;10.716;2024-03-02T20:11:17;27.07;;;12.20;;
21416;SDS011;10869;52.238;10.716;2024-03-02T20:27:54;26.23;;;15.77;;
21416;SDS011;10869;52.238;10.716;2024-03-02T20:30:20;23.63;;;14.90;;
21416;SDS011;10869;52.238;10.716;2024-03-02T20:32:54;28.07;;;15.60;;
21416;SDS011;10869;52.238;10.716;2024-03-02T20:38:50;29.43;;;17.57;;
21416;SDS011;10869;52.238;10.716;2024-03-02T20:41:19;29.87;;;16.57;;
21416;SDS011;10869;52.238;10.716;2024-03-02T20:43:49;27.00;;;16.97;;
21416;SDS011;10869;52.238;10.716;2024-03-02T20:46:19;26.37;;;16.93;;
21416;SDS011;10869;52.238;10.716;2024-03-02T20:55:29;27.83;;;16.87;;
21416;SDS011;10869;52.238;10.716;2024-03-02T20:57:59;30.67;;;18.80;;
21416;SDS011;10869;52.238;10.716;2024-03-02T21:00:28;31.43;;;20.60;;
21416;SDS011;10869;52.238;10.716;2024-03-02T21:02:54;34.13;;;20.83;;